Time;durP1;ratioP1;P1;durP2;ratioP2;P2;SDS_P1;SDS_P2;PMS_P1;PMS_P2;Temp;Humidity;BMP_temperature;BMP_pressure;BME280_temperature;BME280_humidity;BME280_pressure;Samples;Min_cycle;Max_cycle;Signal;HPM_P1;HPM_P2
2022/09/10 00:02:02;;;;;;;8.50;5.10;;;16.70;99.90;;;;;;5015780;28;20487;-43
2022/09/10 00:04:28;;;;;;;10.88;5.30;;;16.70;99.90;;;;;;5026819;28;20068;-40
2022/09/10 00:06:55;;;;;;;13.32;5.03;;;16.80;99.90;;;;;;5048818;28;20529;-43
2022/09/10 00:09:20;;;;;;;17.00;4.85;;;16.70;99.90;;;;;;5054686;28;20497;-41
2022/09/10 00:11:46;;;;;;;10.10;4.70;;;16.70;99.90;;;;;;5054558;28;20032;-49
2022/09/10 00:14:16;;;;;;;11.65;4.63;;;16.70;99.90;;;;;;5054805;28;20465;-53
2022/09/10 00:16:42;;;;;;;9.48;4.90;;;16.60;99.90;;;;;;5035316;28;20018;-48
2022/09/10 00:19:08;;;;;;;7.38;4.65;;;16.60;99.90;;;;;;5017263;28;20026;-43
2022/09/10 00:21:34;;;;;;;12.23;5.57;;;16.50;99.90;;;;;;5054724;28;20021;-45
2022/09/10 00:24:01;;;;;;;12.82;5.20;;;16.40;99.90;;;;;;5054444;28;20424;-46
2022/09/10 00:26:29;;;;;;;9.63;5.05;;;16.30;99.90;;;;;;5032926;28;20488;-46
2022/09/10 00:29:00;;;;;;;8.30;5.10;;;16.30;99.90;;;;;;5014861;28;20046;-44
2022/09/10 00:31:26;;;;;;;10.80;5.15;;;16.20;99.90;;;;;;5031470;28;20096;-45
2022/09/10 00:33:53;;;;;;;11.25;5.35;;;16.10;99.90;;;;;;5033581;28;20488;-47
2022/09/10 00:36:21;;;;;;;12.30;3.87;;;16.20;99.90;;;;;;5047628;28;20487;-42
2022/09/10 00:38:49;;;;;;;12.35;5.55;;;16.10;99.90;;;;;;5037127;28;20049;-46
2022/09/10 00:41:16;;;;;;;11.57;5.15;;;16.10;99.90;;;;;;5017856;28;20062;-44
2022/09/10 00:43:56;;;;;;;10.30;5.28;;;16.10;99.90;;;;;;5014330;28;20045;-47
2022/09/10 00:46:25;;;;;;;18.00;6.95;;;16.10;99.90;;;;;;5020512;28;20025;-39
2022/09/10 00:48:53;;;;;;;12.93;5.22;;;16.10;99.90;;;;;;5030876;28;20033;-38
2022/09/10 00:51:19;;;;;;;11.07;5.47;;;16.10;99.90;;;;;;5014120;28;20534;-37
2022/09/10 00:53:45;;;;;;;9.73;5.82;;;16.20;99.90;;;;;;5014089;28;20092;-39
2022/09/10 00:56:13;;;;;;;12.90;6.00;;;16.10;99.90;;;;;;5014347;28;20026;-36
2022/09/10 00:58:38;;;;;;;;;;;16.10;99.90;;;;;;5014297;28;20080;-35
2022/09/10 01:01:05;;;;;;;18.00;6.65;;;16.10;99.90;;;;;;5013903;28;20444;-35
2022/09/10 01:03:31;;;;;;;11.43;6.20;;;16.10;99.90;;;;;;5013882;28;20014;-37
2022/09/10 01:05:57;;;;;;;20.50;7.63;;;16.10;99.90;;;;;;5028433;28;20385;-38
2022/09/10 01:08:26;;;;;;;10.23;5.88;;;16.10;99.90;;;;;;5031686;28;20026;-34
2022/09/10 01:11:15;;;;;;;17.42;6.03;;;16.10;99.90;;;;;;5033503;28;20053;-37
2022/09/10 01:14:09;;;;;;;11.43;5.78;;;16.10;99.90;;;;;;5033473;28;20112;-36
2022/09/10 01:16:43;;;;;;;8.35;5.75;;;16.10;99.90;;;;;;5032054;28;20036;-35
2022/09/10 01:19:33;;;;;;;7.45;5.35;;;16.00;99.90;;;;;;5033324;28;20486;-38
2022/09/10 01:22:41;;;;;;;8.60;6.18;;;16.00;99.90;;;;;;5036266;28;20033;-33
2022/09/10 01:25:27;;;;;;;11.98;5.50;;;16.00;99.90;;;;;;5031383;28;20402;-35
2022/09/10 01:27:55;;;;;;;11.48;5.80;;;16.00;99.90;;;;;;5033292;28;20026;-35
2022/09/10 01:30:27;;;;;;;13.70;6.00;;;15.90;99.90;;;;;;5030836;28;20465;-35
2022/09/10 01:33:02;;;;;;;12.10;5.50;;;15.90;99.90;;;;;;5019033;28;20125;-32
2022/09/10 01:35:39;;;;;;;15.80;5.90;;;15.90;99.90;;;;;;5018332;28;20032;-35
2022/09/10 01:38:17;;;;;;;8.68;5.57;;;15.90;99.90;;;;;;5052848;28;20431;-32
2022/09/10 01:40:43;;;;;;;13.88;5.93;;;15.90;99.90;;;;;;5030496;28;20029;-36
2022/09/10 01:43:10;;;;;;;10.70;6.05;;;16.00;99.90;;;;;;5013501;28;20018;-35
2022/09/10 01:46:04;;;;;;;15.80;6.45;;;16.00;99.90;;;;;;5020654;28;20025;-39
2022/09/10 01:48:50;;;;;;;14.45;6.07;;;16.00;99.90;;;;;;5037325;28;20048;-36
2022/09/10 01:51:22;;;;;;;10.52;5.32;;;16.00;99.90;;;;;;5031462;28;20075;-36
2022/09/10 01:54:10;;;;;;;10.57;5.50;;;16.00;99.90;;;;;;5032906;28;20441;-32
2022/09/10 01:57:01;;;;;;;10.13;5.30;;;16.00;99.90;;;;;;5033025;28;20083;-34
2022/09/10 01:59:48;;;;;;;9.05;5.30;;;16.00;99.90;;;;;;5032751;28;20528;-35
2022/09/10 02:02:45;;;;;;;13.32;6.32;;;16.00;99.90;;;;;;5012639;28;20494;-34
2022/09/10 02:05:12;;;;;;;10.95;6.47;;;16.00;99.90;;;;;;5013086;28;20018;-34
2022/09/10 02:07:38;;;;;;;17.15;6.93;;;16.00;99.90;;;;;;5043791;28;20037;-38
2022/09/10 02:10:07;;;;;;;14.65;7.90;;;16.00;99.90;;;;;;5031960;28;20108;-37
2022/09/10 02:12:33;;;;;;;15.32;7.28;;;16.00;99.90;;;;;;5032912;28;20405;-35
2022/09/10 02:14:59;;;;;;;18.10;8.57;;;16.10;99.90;;;;;;5031186;28;20075;-38
2022/09/10 02:17:32;;;;;;;14.68;8.20;;;16.10;99.90;;;;;;5030111;28;20045;-36
2022/09/10 02:20:01;;;;;;;17.60;9.00;;;16.10;99.90;;;;;;5032577;28;20474;-33
2022/09/10 02:22:30;;;;;;;16.52;9.85;;;16.20;99.90;;;;;;5044493;28;20021;-35
2022/09/10 02:24:56;;;;;;;17.63;11.05;;;16.20;99.90;;;;;;5051193;28;20013;-33
2022/09/10 02:27:22;;;;;;;22.80;10.25;;;16.20;99.90;;;;;;5032661;28;20358;-32
2022/09/10 02:29:48;;;;;;;16.38;9.27;;;16.20;99.90;;;;;;5032484;28;20025;-34
2022/09/10 02:32:14;;;;;;;17.85;10.10;;;16.20;99.90;;;;;;5015291;28;20034;-34
2022/09/10 02:34:40;;;;;;;21.83;11.27;;;16.20;99.90;;;;;;5012771;28;20506;-34
2022/09/10 02:37:06;;;;;;;15.60;9.23;;;16.20;99.90;;;;;;5035498;28;20075;-40
2022/09/10 02:39:31;;;;;;;26.73;11.13;;;16.30;99.90;;;;;;5052317;28;20036;-32
2022/09/10 02:41:58;;;;;;;17.02;9.85;;;16.30;99.90;;;;;;5052346;28;20029;-38
2022/09/10 02:44:25;;;;;;;15.35;10.60;;;16.30;99.90;;;;;;5052341;28;20059;-34
2022/09/10 02:46:51;;;;;;;16.63;10.20;;;16.20;99.90;;;;;;5037857;28;20025;-32
2022/09/10 02:49:16;;;;;;;21.13;10.77;;;16.30;99.90;;;;;;5032414;28;20033;-33
2022/09/10 02:51:43;;;;;;;14.50;9.23;;;16.20;99.90;;;;;;5034553;28;20025;-32
2022/09/10 02:54:09;;;;;;;16.95;9.85;;;16.30;99.90;;;;;;5052266;28;20443;-35
2022/09/10 02:56:35;;;;;;;16.80;10.23;;;16.30;99.90;;;;;;5032166;28;20022;-33
2022/09/10 02:59:00;;;;;;;18.00;9.93;;;16.30;99.90;;;;;;5012449;28;20026;-31
2022/09/10 03:01:26;;;;;;;16.08;10.43;;;16.30;99.90;;;;;;5018190;28;20097;-35
2022/09/10 03:03:54;;;;;;;19.60;10.10;;;16.30;99.90;;;;;;5032527;28;20448;-34
2022/09/10 03:06:22;;;;;;;20.25;11.10;;;16.40;99.90;;;;;;5030995;28;20543;-36
2022/09/10 03:08:48;;;;;;;17.35;10.85;;;16.40;99.90;;;;;;5048623;28;20082;-32
2022/09/10 03:11:21;;;;;;;19.52;10.75;;;16.40;99.90;;;;;;5052079;28;20033;-32
2022/09/10 03:13:47;;;;;;;16.30;10.43;;;16.40;99.90;;;;;;5053538;28;20443;-34
2022/09/10 03:16:17;;;;;;;15.38;9.80;;;16.30;99.90;;;;;;5047446;28;20017;-37
2022/09/10 03:18:43;;;;;;;14.25;9.40;;;16.30;99.90;;;;;;5035592;28;20124;-35
2022/09/10 03:21:20;;;;;;;19.85;11.25;;;16.40;99.90;;;;;;5035873;28;20068;-37
2022/09/10 03:23:48;;;;;;;17.15;11.57;;;16.40;99.90;;;;;;5066405;28;20026;-36
2022/09/10 03:26:16;;;;;;;18.23;10.68;;;16.40;99.90;;;;;;5027707;28;20022;-33
2022/09/10 03:28:42;;;;;;;13.13;10.07;;;16.40;99.90;;;;;;5015736;28;20029;-38
2022/09/10 03:31:08;;;;;;;15.30;10.38;;;16.40;99.90;;;;;;5030231;28;20104;-36
2022/09/10 03:33:36;;;;;;;15.82;10.20;;;16.40;99.90;;;;;;5034001;28;20490;-36
2022/09/10 03:36:04;;;;;;;19.02;10.10;;;16.40;99.90;;;;;;5035389;28;20533;-36
2022/09/10 03:38:30;;;;;;;17.17;9.82;;;16.40;99.90;;;;;;5027897;28;20406;-38
2022/09/10 03:40:56;;;;;;;17.45;10.63;;;16.40;99.90;;;;;;5015416;28;20105;-39
2022/09/10 03:43:21;;;;;;;16.67;10.95;;;16.50;99.90;;;;;;5015691;28;20026;-38
2022/09/10 03:45:48;;;;;;;13.20;9.05;;;16.50;99.90;;;;;;5015584;28;20022;-34
2022/09/10 03:48:16;;;;;;;21.10;10.65;;;16.50;99.90;;;;;;5015358;28;20050;-35
2022/09/10 03:50:43;;;;;;;17.17;9.73;;;16.50;99.90;;;;;;5043620;28;20511;-32
2022/09/10 03:53:10;;;;;;;21.80;10.63;;;16.60;99.90;;;;;;5028358;28;20021;-34
2022/09/10 03:55:36;;;;;;;16.73;9.98;;;16.50;99.90;;;;;;5051156;28;20037;-36
2022/09/10 03:58:02;;;;;;;17.02;10.10;;;16.60;99.90;;;;;;5034848;28;20081;-35
2022/09/10 04:00:27;;;;;;;19.33;9.25;;;16.50;99.90;;;;;;5034614;28;20481;-41
2022/09/10 04:02:53;;;;;;;16.52;9.70;;;16.60;99.90;;;;;;5019092;28;20025;-35
2022/09/10 04:05:19;;;;;;;17.58;9.43;;;16.50;99.90;;;;;;5031541;28;20527;-35
2022/09/10 04:07:45;;;;;;;15.77;10.23;;;16.50;99.90;;;;;;5035234;28;20466;-33
2022/09/10 04:10:12;;;;;;;19.38;10.50;;;16.50;99.90;;;;;;5054862;28;20020;-34
2022/09/10 04:12:38;;;;;;;18.60;10.65;;;16.50;99.90;;;;;;5042653;28;20026;-34
2022/09/10 04:15:04;;;;;;;15.85;10.02;;;16.50;99.90;;;;;;5014819;28;20022;-35
2022/09/10 04:17:30;;;;;;;24.10;10.98;;;16.60;99.90;;;;;;5014154;28;20042;-36
2022/09/10 04:19:56;;;;;;;19.23;11.07;;;16.60;99.90;;;;;;5014650;28;20117;-38
2022/09/10 04:22:21;;;;;;;14.80;9.98;;;16.60;99.90;;;;;;5014716;28;20025;-36
2022/09/10 04:24:47;;;;;;;18.48;10.45;;;16.50;99.90;;;;;;5040339;28;20504;-33
2022/09/10 04:27:13;;;;;;;19.05;11.57;;;16.50;99.90;;;;;;5054341;28;20033;-34
2022/09/10 04:29:39;;;;;;;17.30;10.27;;;16.40;99.90;;;;;;5050260;28;20140;-34
2022/09/10 04:32:05;;;;;;;15.07;10.63;;;16.30;99.90;;;;;;5024464;28;20517;-34
2022/09/10 04:34:31;;;;;;;16.70;10.60;;;16.30;99.90;;;;;;5014668;28;20014;-32
2022/09/10 04:36:56;;;;;;;17.85;9.90;;;16.30;99.90;;;;;;5013859;28;20524;-36
2022/09/10 04:39:22;;;;;;;15.02;9.57;;;16.30;99.90;;;;;;5035896;28;20055;-34
2022/09/10 04:41:47;;;;;;;17.48;9.43;;;16.30;99.90;;;;;;5042678;28;20026;-33
2022/09/10 04:44:13;;;;;;;15.98;9.27;;;16.20;99.90;;;;;;5024577;28;20025;-34
2022/09/10 04:46:40;;;;;;;13.48;8.77;;;16.20;99.90;;;;;;5032626;28;20052;-37
2022/09/10 04:49:06;;;;;;;12.63;8.60;;;16.20;99.90;;;;;;5033965;28;20504;-36
2022/09/10 04:51:32;;;;;;;12.15;8.25;;;16.20;99.90;;;;;;5034181;28;20029;-34
2022/09/10 04:53:58;;;;;;;14.98;8.30;;;16.20;99.90;;;;;;5033158;28;20104;-33
2022/09/10 04:56:24;;;;;;;16.27;8.50;;;16.20;99.90;;;;;;5033746;28;20029;-36
2022/09/10 04:58:50;;;;;;;15.68;7.25;;;16.20;99.90;;;;;;5030235;28;20039;-34
2022/09/10 05:01:16;;;;;;;10.30;7.57;;;16.20;99.90;;;;;;5014212;28;20104;-38
2022/09/10 05:03:41;;;;;;;13.18;7.53;;;16.20;99.90;;;;;;5030289;28;20450;-38
2022/09/10 05:06:07;;;;;;;12.75;7.38;;;16.20;99.90;;;;;;5033654;28;20104;-32
2022/09/10 05:08:33;;;;;;;12.75;6.88;;;16.20;99.90;;;;;;5031465;28;20116;-40
2022/09/10 05:11:01;;;;;;;10.85;6.90;;;16.30;99.90;;;;;;5052265;28;20421;-31
2022/09/10 05:13:30;;;;;;;12.38;6.63;;;16.30;99.90;;;;;;5046075;28;20075;-34
2022/09/10 05:15:58;;;;;;;15.27;7.90;;;16.30;99.90;;;;;;5033771;28;20033;-35
2022/09/10 05:18:25;;;;;;;12.82;7.63;;;16.30;99.90;;;;;;5032214;28;20373;-30
2022/09/10 05:20:51;;;;;;;13.55;8.10;;;16.30;99.90;;;;;;5033308;28;20108;-36
2022/09/10 05:23:17;;;;;;;11.50;6.95;;;16.30;99.90;;;;;;5030701;28;20108;-33
2022/09/10 05:25:47;;;;;;;14.93;8.07;;;16.40;99.90;;;;;;5041099;28;20025;-33
2022/09/10 05:28:14;;;;;;;17.80;8.02;;;16.40;99.90;;;;;;5033290;28;20060;-35
2022/09/10 05:30:40;;;;;;;13.07;7.47;;;16.30;99.90;;;;;;5032347;28;20446;-33
2022/09/10 05:33:06;;;;;;;14.25;7.63;;;16.40;99.90;;;;;;5033395;28;20049;-40
2022/09/10 05:35:32;;;;;;;12.18;7.80;;;16.40;99.90;;;;;;5032932;28;20033;-32
2022/09/10 05:37:59;;;;;;;14.43;8.45;;;16.40;99.90;;;;;;5032411;28;20168;-33
2022/09/10 05:40:24;;;;;;;18.10;8.47;;;16.40;99.90;;;;;;5029742;28;20026;-36
2022/09/10 05:42:50;;;;;;;12.38;7.90;;;16.40;99.90;;;;;;5032994;28;20029;-31
2022/09/10 05:45:18;;;;;;;16.10;8.10;;;16.40;99.90;;;;;;5032976;28;20048;-32
2022/09/10 05:47:43;;;;;;;17.83;8.60;;;16.40;99.90;;;;;;5032978;28;20022;-36
2022/09/10 05:50:10;;;;;;;21.48;9.05;;;16.50;99.90;;;;;;5035791;28;20039;-33
2022/09/10 05:52:36;;;;;;;15.50;8.80;;;16.40;99.90;;;;;;5051849;28;20029;-30
2022/09/10 05:55:02;;;;;;;19.35;9.82;;;16.50;99.90;;;;;;5044478;28;20040;-32
2022/09/10 05:57:27;;;;;;;18.08;8.50;;;16.50;99.90;;;;;;5036284;28;20033;-33
2022/09/10 05:59:53;;;;;;;11.25;8.00;;;16.50;99.90;;;;;;5032808;28;20032;-29
2022/09/10 06:02:19;;;;;;;16.20;9.63;;;16.60;99.90;;;;;;5032830;28;20068;-36
2022/09/10 06:04:44;;;;;;;22.75;10.75;;;16.70;99.90;;;;;;5033059;28;20021;-30
2022/09/10 06:07:10;;;;;;;18.10;9.90;;;16.70;99.90;;;;;;5033296;28;20030;-31
2022/09/10 06:09:36;;;;;;;20.98;10.98;;;16.70;99.90;;;;;;5036804;28;20029;-30
2022/09/10 06:12:02;;;;;;;19.33;10.00;;;16.70;99.90;;;;;;5053093;28;20034;-30
2022/09/10 06:14:28;;;;;;;21.25;10.52;;;16.70;99.90;;;;;;5031558;28;20536;-34
2022/09/10 06:16:54;;;;;;;19.58;10.25;;;16.80;99.90;;;;;;5032979;28;20493;-33
2022/09/10 06:19:20;;;;;;;21.42;11.15;;;16.90;99.90;;;;;;5031127;28;20021;-29
2022/09/10 06:21:48;;;;;;;18.33;10.40;;;16.90;99.90;;;;;;5033972;28;20424;-33
2022/09/10 06:24:14;;;;;;;17.50;10.45;;;16.90;99.90;;;;;;5051093;28;20536;-32
2022/09/10 06:26:40;;;;;;;21.30;11.23;;;17.00;99.90;;;;;;5052512;28;20092;-34
2022/09/10 06:29:06;;;;;;;18.17;10.02;;;17.00;99.90;;;;;;5052475;28;20080;-30
2022/09/10 06:31:33;;;;;;;16.02;10.43;;;17.10;99.90;;;;;;5032727;28;20484;-33
2022/09/10 06:34:00;;;;;;;21.75;10.25;;;17.00;99.90;;;;;;5032806;28;20045;-30
2022/09/10 06:36:27;;;;;;;19.35;10.95;;;17.10;99.90;;;;;;5031824;28;20029;-31
2022/09/10 06:38:56;;;;;;;20.63;11.30;;;17.10;99.90;;;;;;5045666;28;20040;-34
2022/09/10 06:41:23;;;;;;;20.10;10.10;;;17.10;99.90;;;;;;5048591;28;20083;-36
2022/09/10 06:43:49;;;;;;;16.20;9.82;;;17.10;99.90;;;;;;5034624;28;20029;-36
2022/09/10 06:46:17;;;;;;;21.50;11.88;;;17.10;99.90;;;;;;5032685;28;20521;-34
2022/09/10 06:48:44;;;;;;;15.48;8.63;;;17.10;99.90;;;;;;5034624;28;20025;-33
2022/09/10 06:51:11;;;;;;;11.90;8.60;;;17.10;99.90;;;;;;5036417;28;20026;-33
2022/09/10 06:53:38;;;;;;;17.45;10.00;;;17.20;99.90;;;;;;5044192;28;20343;-32
2022/09/10 06:56:05;;;;;;;25.10;11.07;;;17.30;99.90;;;;;;5056310;28;20540;-34
2022/09/10 06:58:33;;;;;;;17.52;10.38;;;17.40;99.90;;;;;;5053514;28;20628;-31
2022/09/10 07:01:05;;;;;;;15.25;9.10;;;17.50;99.90;;;;;;5055909;28;20024;-34
2022/09/10 07:03:30;;;;;;;19.10;9.63;;;17.60;99.90;;;;;;5055974;28;20021;-30
2022/09/10 07:06:01;;;;;;;17.17;9.45;;;17.80;99.90;;;;;;5024808;28;20462;-33
2022/09/10 07:08:27;;;;;;;13.30;8.23;;;17.90;99.90;;;;;;5037735;28;20033;-33
2022/09/10 07:11:02;;;;;;;16.95;9.73;;;17.90;99.90;;;;;;5044068;28;20105;-34
2022/09/10 07:13:28;;;;;;;13.57;8.73;;;17.90;99.90;;;;;;5024163;28;20501;-35
2022/09/10 07:15:54;;;;;;;11.73;8.70;;;17.90;99.90;;;;;;5032372;28;20033;-33
2022/09/10 07:18:20;;;;;;;18.33;8.68;;;17.90;99.90;;;;;;5029738;28;20034;-35
2022/09/10 07:20:46;;;;;;;15.98;8.27;;;17.80;99.90;;;;;;5015891;28;20495;-32
2022/09/10 07:23:14;;;;;;;11.88;7.32;;;17.80;99.90;;;;;;5015831;28;20014;-34
2022/09/10 07:25:40;;;;;;;22.55;8.60;;;17.80;99.90;;;;;;5029343;28;20475;-40
2022/09/10 07:28:11;;;;;;;24.70;8.10;;;17.90;99.90;;;;;;5021704;28;20110;-34
2022/09/10 07:30:38;;;;;;;21.05;8.32;;;17.90;99.90;;;;;;5025370;28;20032;-35
2022/09/10 07:33:04;;;;;;;17.20;8.65;;;18.00;99.90;;;;;;5036059;28;20052;-34
2022/09/10 07:35:36;;;;;;;15.75;7.88;;;18.00;99.90;;;;;;5041094;28;20065;-30
2022/09/10 07:38:04;;;;;;;12.32;7.72;;;18.10;99.90;;;;;;5041862;28;20449;-34
2022/09/10 07:40:31;;;;;;;10.38;7.70;;;18.00;99.90;;;;;;5035280;28;20489;-37
2022/09/10 07:42:57;;;;;;;15.15;8.02;;;18.00;99.90;;;;;;5033975;28;20493;-36
2022/09/10 07:45:24;;;;;;;19.25;7.55;;;18.00;99.90;;;;;;5033912;28;20024;-33
2022/09/10 07:47:50;;;;;;;11.27;7.80;;;18.00;99.90;;;;;;5030349;28;20512;-33
2022/09/10 07:50:16;;;;;;;10.80;8.05;;;18.00;99.90;;;;;;5052660;28;20025;-35
2022/09/10 07:52:41;;;;;;;14.63;6.57;;;18.10;99.90;;;;;;5042196;28;20041;-36
2022/09/10 07:55:08;;;;;;;10.15;6.55;;;18.00;99.90;;;;;;5034516;28;20474;-33
2022/09/10 07:57:38;;;;;;;9.95;5.28;;;18.00;99.90;;;;;;5035418;28;20029;-33
2022/09/10 08:00:10;;;;;;;9.80;6.78;;;18.10;99.90;;;;;;5019589;28;20040;-36
2022/09/10 08:02:37;;;;;;;8.70;6.57;;;18.20;99.90;;;;;;5025342;28;20079;-32
2022/09/10 08:05:04;;;;;;;9.82;7.28;;;18.20;99.90;;;;;;5041614;28;20025;-32
2022/09/10 08:07:30;;;;;;;10.05;7.00;;;18.30;99.90;;;;;;5044887;28;20026;-36
2022/09/10 08:09:56;;;;;;;13.30;6.82;;;18.30;99.90;;;;;;5024363;28;20492;-38
2022/09/10 08:12:24;;;;;;;8.35;6.40;;;18.20;99.90;;;;;;5039622;28;20037;-36
2022/09/10 08:14:51;;;;;;;15.32;7.05;;;18.20;99.90;;;;;;5033889;28;20378;-34
2022/09/10 08:17:16;;;;;;;9.47;4.90;;;18.20;99.90;;;;;;5016026;28;20037;-32
2022/09/10 08:19:42;;;;;;;12.23;5.97;;;18.10;99.90;;;;;;5014685;28;20026;-36
2022/09/10 08:22:08;;;;;;;11.85;5.45;;;18.00;99.90;;;;;;5033868;28;20386;-31
2022/09/10 08:24:34;;;;;;;7.22;4.50;;;18.00;99.90;;;;;;5029144;28;20034;-36
2022/09/10 08:26:59;;;;;;;5.50;4.63;;;18.00;99.90;;;;;;5014489;28;20105;-36
2022/09/10 08:29:25;;;;;;;8.40;3.85;;;18.10;99.90;;;;;;5015476;28;20029;-36
2022/09/10 08:31:51;;;;;;;7.38;3.55;;;18.10;99.90;;;;;;5043964;28;20059;-35
2022/09/10 08:34:16;;;;;;;7.35;3.42;;;18.20;99.90;;;;;;5034220;28;20075;-39
2022/09/10 08:36:42;;;;;;;7.97;4.53;;;18.50;99.90;;;;;;5033697;28;20030;-36
2022/09/10 08:39:07;;;;;;;7.80;3.97;;;18.80;99.90;;;;;;5023619;28;20440;-35
2022/09/10 08:41:37;;;;;;;6.55;3.28;;;19.00;99.90;;;;;;5020966;28;20398;-34
2022/09/10 08:44:09;;;;;;;5.53;3.83;;;19.30;99.90;;;;;;5024544;28;20099;-36
2022/09/10 08:46:58;;;;;;;8.88;4.00;;;19.30;99.90;;;;;;5037965;28;20041;-33
2022/09/10 08:49:42;;;;;;;6.95;3.50;;;19.10;99.90;;;;;;5030871;28;20022;-39
2022/09/10 08:52:28;;;;;;;12.13;5.57;;;18.90;99.90;;;;;;5034085;28;20033;-39
2022/09/10 08:55:16;;;;;;;9.32;4.43;;;18.60;99.90;;;;;;5032231;28;20040;-37
2022/09/10 08:58:05;;;;;;;6.10;4.93;;;18.40;99.90;;;;;;5032471;28;20021;-36
2022/09/10 09:00:36;;;;;;;8.05;4.35;;;18.20;99.90;;;;;;5038338;28;20057;-35
2022/09/10 09:03:12;;;;;;;8.07;5.00;;;18.10;99.90;;;;;;5049125;28;20022;-37
2022/09/10 09:05:51;;;;;;;13.23;4.30;;;18.00;99.90;;;;;;5032886;28;20485;-39
2022/09/10 09:08:24;;;;;;;4.63;3.40;;;18.10;99.90;;;;;;5033138;28;20540;-41
2022/09/10 09:11:09;;;;;;;5.60;3.30;;;18.20;99.90;;;;;;5031615;28;20029;-34
2022/09/10 09:14:06;;;;;;;9.98;3.60;;;18.30;99.90;;;;;;5024552;28;20429;-35
2022/09/10 09:16:42;;;;;;;5.78;3.38;;;18.40;99.90;;;;;;5030546;28;20061;-37
2022/09/10 09:19:44;;;;;;;5.07;3.65;;;18.50;99.90;;;;;;5053276;28;20505;-39
2022/09/10 09:22:44;;;;;;;4.93;3.28;;;18.50;99.90;;;;;;5023112;28;20106;-39
2022/09/10 09:25:33;;;;;;;4.05;3.50;;;18.60;99.90;;;;;;5026895;28;20075;-35
2022/09/10 09:27:59;;;;;;;6.13;3.97;;;18.60;99.90;;;;;;5027670;28;20420;-38
2022/09/10 09:30:36;;;;;;;7.60;3.63;;;18.60;99.90;;;;;;5053793;28;20028;-39
2022/09/10 09:33:12;;;;;;;4.43;3.78;;;18.70;99.90;;;;;;5022786;28;20029;-37
2022/09/10 09:36:02;;;;;;;5.20;3.15;;;18.80;99.90;;;;;;5050653;28;20543;-39
2022/09/10 09:38:36;;;;;;;4.30;3.35;;;18.70;99.90;;;;;;5036486;28;20057;-42
2022/09/10 09:41:24;;;;;;;6.05;3.88;;;18.60;99.90;;;;;;5030098;28;20115;-36
2022/09/10 09:43:54;;;;;;;;;;;18.50;99.90;;;;;;5052334;28;20033;-36
2022/09/10 09:46:21;;;;;;;8.15;3.70;;;18.60;99.90;;;;;;5041120;28;19912;-40
2022/09/10 09:48:52;;;;;;;4.15;3.58;;;18.80;99.90;;;;;;5027169;28;20514;-35
2022/09/10 09:51:19;;;;;;;7.18;3.80;;;18.90;99.90;;;;;;5022731;28;20496;-37
2022/09/10 09:53:49;;;;;;;7.88;3.10;;;19.00;99.90;;;;;;5023549;28;20029;-41
2022/09/10 09:56:26;;;;;;;3.65;2.40;;;19.10;99.90;;;;;;5025877;28;20116;-38
2022/09/10 09:58:52;;;;;;;7.22;3.30;;;19.20;99.90;;;;;;5033646;28;20499;-39
2022/09/10 10:01:21;;;;;;;6.10;2.58;;;19.50;99.90;;;;;;5037293;28;20022;-37
2022/09/10 10:03:51;;;;;;;3.75;3.30;;;19.60;99.90;;;;;;5015683;28;20463;-35
2022/09/10 10:06:32;;;;;;;4.30;2.75;;;19.30;99.90;;;;;;5028437;28;20029;-39
2022/09/10 10:09:02;;;;;;;7.03;3.95;;;19.20;99.90;;;;;;5030422;28;20113;-39
2022/09/10 10:11:59;;;;;;;4.97;3.97;;;19.00;99.90;;;;;;5023871;28;20473;-39
2022/09/10 10:14:30;;;;;;;5.30;3.93;;;18.90;99.90;;;;;;5015028;28;20065;-41
2022/09/10 10:16:59;;;;;;;6.10;4.07;;;18.80;99.90;;;;;;5025904;28;20064;-38
2022/09/10 10:19:31;;;;;;;6.80;4.35;;;18.90;99.90;;;;;;5030974;28;20022;-37
2022/09/10 10:22:16;;;;;;;6.03;3.67;;;18.80;99.90;;;;;;5022535;28;20273;-39
2022/09/10 10:24:44;;;;;;;5.90;4.43;;;18.80;99.90;;;;;;5026697;28;20490;-33
2022/09/10 10:27:36;;;;;;;7.00;4.68;;;18.70;99.90;;;;;;5053129;28;20075;-41
2022/09/10 10:30:04;;;;;;;5.57;4.50;;;18.60;99.90;;;;;;5038467;28;20048;-36
2022/09/10 10:33:01;;;;;;;7.65;4.75;;;18.70;99.90;;;;;;5016673;28;20036;-37
2022/09/10 10:35:32;;;;;;;6.82;4.65;;;18.80;99.90;;;;;;5015795;28;20517;-36
2022/09/10 10:38:30;;;;;;;5.70;4.90;;;19.00;99.90;;;;;;5033074;28;20313;-37
2022/09/10 10:41:23;;;;;;;7.85;5.03;;;19.20;99.90;;;;;;5023221;28;20086;-38
2022/09/10 10:43:59;;;;;;;6.90;4.00;;;19.50;99.90;;;;;;5031885;28;20108;-38
2022/09/10 10:47:03;;;;;;;5.95;4.47;;;19.60;99.90;;;;;;5031129;28;20522;-39
2022/09/10 10:49:53;;;;;;;6.00;4.80;;;19.80;99.90;;;;;;5031857;28;20032;-40
2022/09/10 10:52:28;;;;;;;5.60;4.47;;;19.90;99.90;;;;;;5050701;28;20075;-42
2022/09/10 10:55:03;;;;;;;6.57;4.50;;;19.80;99.90;;;;;;5034519;28;20036;-39
2022/09/10 10:57:40;;;;;;;5.78;4.95;;;19.60;99.90;;;;;;5056059;28;20025;-40
2022/09/10 11:00:16;;;;;;;5.45;4.95;;;19.30;99.90;;;;;;5056238;28;20025;-39
2022/09/10 11:03:16;;;;;;;5.22;4.72;;;19.30;99.90;;;;;;5033268;28;20481;-39
2022/09/10 11:05:51;;;;;;;6.38;4.20;;;19.60;99.90;;;;;;5040914;28;20079;-39
2022/09/10 11:08:26;;;;;;;5.70;4.00;;;19.90;99.90;;;;;;5024625;28;20022;-41
2022/09/10 11:11:13;;;;;;;8.07;4.55;;;20.10;99.90;;;;;;5054763;28;20017;-43
2022/09/10 11:13:43;;;;;;;7.22;3.47;;;20.10;99.90;;;;;;5052860;28;20032;-41
2022/09/10 11:16:20;;;;;;;4.82;3.17;;;19.70;99.90;;;;;;5035873;28;20033;-39
2022/09/10 11:19:10;;;;;;;6.18;4.25;;;19.50;99.90;;;;;;5035153;28;20080;-35
2022/09/10 11:21:43;;;;;;;3.85;3.20;;;19.60;99.90;;;;;;5035134;28;20021;-42
2022/09/10 11:24:15;;;;;;;5.13;2.83;;;20.00;99.90;;;;;;5025392;28;20022;-37
2022/09/10 11:26:44;;;;;;;3.78;3.03;;;20.10;99.90;;;;;;5052152;28;20033;-37
2022/09/10 11:29:21;;;;;;;4.80;3.25;;;20.20;99.90;;;;;;5045149;28;20505;-38
2022/09/10 11:31:52;;;;;;;;;;;20.00;99.90;;;;;;5016105;28;20030;-39
2022/09/10 11:34:31;;;;;;;19.27;3.60;;;19.80;99.90;;;;;;5014369;28;20373;-37
2022/09/10 11:37:27;;;;;;;3.33;2.97;;;19.90;99.90;;;;;;5026717;28;20448;-41
2022/09/10 11:39:56;;;;;;;2.65;2.35;;;20.40;99.90;;;;;;5022886;28;20532;-38
2022/09/10 11:42:28;;;;;;;3.22;2.33;;;20.80;99.90;;;;;;5019437;28;20470;-40
2022/09/10 11:45:11;;;;;;;5.18;2.60;;;21.00;99.90;;;;;;5026065;28;20439;-38
2022/09/10 11:48:19;;;;;;;3.63;2.50;;;20.90;99.90;;;;;;5041706;28;20112;-39
2022/09/10 11:50:55;;;;;;;3.65;1.75;;;20.50;99.90;;;;;;5023004;28;20489;-38
2022/09/10 11:53:23;;;;;;;7.93;2.50;;;20.30;99.90;;;;;;5020455;28;20084;-39
2022/09/10 11:56:07;;;;;;;3.25;2.00;;;20.50;99.90;;;;;;5028675;28;20049;-34
2022/09/10 11:59:01;;;;;;;5.72;2.25;;;20.60;99.90;;;;;;5035191;28;20037;-41
2022/09/10 12:01:46;;;;;;;6.60;2.42;;;20.60;99.90;;;;;;5032101;28;20532;-36
2022/09/10 12:04:30;;;;;;;2.55;2.38;;;20.60;99.90;;;;;;5035161;28;20470;-41
2022/09/10 12:07:40;;;;;;;5.28;2.78;;;20.70;99.90;;;;;;5037909;28;20028;-39
2022/09/10 12:10:38;;;;;;;5.07;2.47;;;20.50;99.90;;;;;;5046222;28;20368;-50
2022/09/10 12:13:09;;;;;;;4.22;2.90;;;20.30;99.90;;;;;;5022652;28;20116;-40
2022/09/10 12:15:36;;;;;;;2.47;2.33;;;20.50;99.90;;;;;;5034780;28;20491;-40
2022/09/10 12:18:27;;;;;;;2.30;2.10;;;20.80;99.90;;;;;;5034481;28;20029;-39
2022/09/10 12:21:01;;;;;;;2.80;2.38;;;21.00;99.90;;;;;;5025467;28;20466;-40
2022/09/10 12:23:38;;;;;;;2.67;2.42;;;21.00;99.90;;;;;;5014848;28;20037;-37
2022/09/10 12:26:07;;;;;;;2.67;2.30;;;20.70;99.90;;;;;;5013952;28;20026;-42
2022/09/10 12:28:42;;;;;;;2.50;2.30;;;20.80;99.90;;;;;;5036149;28;20493;-36
2022/09/10 12:31:27;;;;;;;4.85;2.55;;;21.10;99.90;;;;;;5032550;28;20616;-36
2022/09/10 12:33:53;;;;;;;3.08;2.58;;;21.30;99.90;;;;;;5031803;28;20479;-36
2022/09/10 12:36:38;;;;;;;1.85;1.75;;;21.10;99.90;;;;;;5043761;28;20078;-44
2022/09/10 12:39:25;;;;;;;3.83;2.22;;;21.30;99.90;;;;;;5049851;28;20112;-48
2022/09/10 12:41:51;;;;;;;2.47;2.20;;;21.40;99.90;;;;;;5034496;28;20539;-48
2022/09/10 12:44:35;;;;;;;2.97;2.35;;;21.40;99.90;;;;;;5033622;28;20079;-46
2022/09/10 12:47:16;;;;;;;4.22;2.20;;;21.50;99.90;;;;;;5031082;28;20030;-46
2022/09/10 12:50:15;;;;;;;6.28;2.03;;;21.60;99.90;;;;;;5023782;28;20025;-41
2022/09/10 12:52:50;;;;;;;4.40;2.70;;;21.60;99.90;;;;;;5020639;28;20470;-46
2022/09/10 12:55:43;;;;;;;5.53;2.50;;;21.40;99.90;;;;;;5034230;28;20491;-44
2022/09/10 12:58:38;;;;;;;3.85;2.53;;;21.40;99.90;;;;;;5033676;28;20059;-45
2022/09/10 13:01:30;;;;;;;4.07;2.25;;;21.60;99.90;;;;;;5033380;28;20167;-41
2022/09/10 13:03:59;;;;;;;2.53;2.05;;;21.60;99.90;;;;;;5033066;28;20072;-42
2022/09/10 13:06:42;;;;;;;2.22;2.13;;;21.70;99.90;;;;;;5033672;28;20060;-45